sensor_id;sensor_type;location;lat;lon;timestamp;P1;durP1;ratioP1;P2;durP2;ratioP2
35223;SDS011;21367;51.930;8.112;2022-10-23T00:03:02;17.67;;;9.30;;
35223;SDS011;21367;51.930;8.112;2022-10-23T00:08:06;23.38;;;10.00;;
35223;SDS011;21367;51.930;8.112;2022-10-23T00:13:10;20.05;;;10.25;;
35223;SDS011;21367;51.930;8.112;2022-10-23T00:18:17;23.75;;;10.40;;
35223;SDS011;21367;51.930;8.112;2022-10-23T00:28:24;25.52;;;8.98;;
35223;SDS011;21367;51.930;8.112;2022-10-23T00:33:32;22.85;;;9.85;;
35223;SDS011;21367;51.930;8.112;2022-10-23T00:38:36;26.10;;;9.45;;
35223;SDS011;21367;51.930;8.112;2022-10-23T00:49:05;19.23;;;9.77;;
35223;SDS011;21367;51.930;8.112;2022-10-23T00:54:10;17.08;;;8.90;;
35223;SDS011;21367;51.930;8.112;2022-10-23T00:59:14;28.13;;;10.13;;
35223;SDS011;21367;51.930;8.112;2022-10-23T01:04:21;17.88;;;9.23;;
35223;SDS011;21367;51.930;8.112;2022-10-23T01:09:28;22.25;;;9.70;;
35223;SDS011;21367;51.930;8.112;2022-10-23T01:14:39;20.85;;;9.50;;
35223;SDS011;21367;51.930;8.112;2022-10-23T01:19:58;23.75;;;9.00;;
35223;SDS011;21367;51.930;8.112;2022-10-23T01:25:17;33.72;;;13.60;;
35223;SDS011;21367;51.930;8.112;2022-10-23T01:30:33;42.10;;;24.80;;
35223;SDS011;21367;51.930;8.112;2022-10-23T01:35:45;33.60;;;21.27;;
35223;SDS011;21367;51.930;8.112;2022-10-23T01:40:53;33.13;;;18.92;;
35223;SDS011;21367;51.930;8.112;2022-10-23T01:46:06;33.30;;;17.40;;
35223;SDS011;21367;51.930;8.112;2022-10-23T01:51:13;31.42;;;15.48;;
35223;SDS011;21367;51.930;8.112;2022-10-23T01:56:20;23.35;;;12.77;;
35223;SDS011;21367;51.930;8.112;2022-10-23T02:01:31;22.40;;;11.80;;
35223;SDS011;21367;51.930;8.112;2022-10-23T02:06:38;18.25;;;10.68;;
35223;SDS011;21367;51.930;8.112;2022-10-23T02:11:43;17.25;;;10.18;;
35223;SDS011;21367;51.930;8.112;2022-10-23T02:16:58;19.52;;;9.68;;
35223;SDS011;21367;51.930;8.112;2022-10-23T02:22:11;22.77;;;9.98;;
35223;SDS011;21367;51.930;8.112;2022-10-23T02:27:19;17.88;;;9.18;;
35223;SDS011;21367;51.930;8.112;2022-10-23T02:32:33;15.32;;;8.30;;
35223;SDS011;21367;51.930;8.112;2022-10-23T02:37:39;23.38;;;8.18;;
35223;SDS011;21367;51.930;8.112;2022-10-23T02:42:44;16.65;;;8.85;;
35223;SDS011;21367;51.930;8.112;2022-10-23T02:47:58;20.20;;;7.95;;
35223;SDS011;21367;51.930;8.112;2022-10-23T02:53:11;15.32;;;7.15;;
35223;SDS011;21367;51.930;8.112;2022-10-23T02:58:23;16.15;;;7.65;;
35223;SDS011;21367;51.930;8.112;2022-10-23T03:03:36;17.73;;;7.50;;
35223;SDS011;21367;51.930;8.112;2022-10-23T03:08:44;16.60;;;7.30;;
35223;SDS011;21367;51.930;8.112;2022-10-23T03:13:52;15.05;;;7.50;;
35223;SDS011;21367;51.930;8.112;2022-10-23T03:18:59;19.92;;;6.45;;
35223;SDS011;21367;51.930;8.112;2022-10-23T03:24:03;12.38;;;6.60;;
35223;SDS011;21367;51.930;8.112;2022-10-23T03:29:13;16.98;;;6.57;;
35223;SDS011;21367;51.930;8.112;2022-10-23T03:44:30;16.30;;;7.95;;
35223;SDS011;21367;51.930;8.112;2022-10-23T03:49:38;14.45;;;9.20;;
35223;SDS011;21367;51.930;8.112;2022-10-23T03:54:41;29.10;;;17.95;;
35223;SDS011;21367;51.930;8.112;2022-10-23T03:59:45;39.88;;;22.92;;
35223;SDS011;21367;51.930;8.112;2022-10-23T04:04:52;39.88;;;23.92;;
35223;SDS011;21367;51.930;8.112;2022-10-23T04:09:56;30.13;;;16.98;;
35223;SDS011;21367;51.930;8.112;2022-10-23T04:15:01;28.00;;;11.77;;
35223;SDS011;21367;51.930;8.112;2022-10-23T04:20:08;18.45;;;8.50;;
35223;SDS011;21367;51.930;8.112;2022-10-23T04:25:12;15.82;;;8.10;;
35223;SDS011;21367;51.930;8.112;2022-10-23T04:30:16;17.60;;;8.30;;
35223;SDS011;21367;51.930;8.112;2022-10-23T04:35:23;14.80;;;7.05;;
35223;SDS011;21367;51.930;8.112;2022-10-23T04:40:28;20.95;;;7.30;;
35223;SDS011;21367;51.930;8.112;2022-10-23T04:45:33;13.32;;;6.80;;
35223;SDS011;21367;51.930;8.112;2022-10-23T04:50:40;16.20;;;6.82;;
35223;SDS011;21367;51.930;8.112;2022-10-23T04:56:04;18.42;;;6.68;;
35223;SDS011;21367;51.930;8.112;2022-10-23T05:01:19;13.88;;;6.07;;
35223;SDS011;21367;51.930;8.112;2022-10-23T05:06:27;11.70;;;6.75;;
35223;SDS011;21367;51.930;8.112;2022-10-23T05:11:49;18.65;;;7.40;;
35223;SDS011;21367;51.930;8.112;2022-10-23T05:16:54;21.02;;;6.88;;
35223;SDS011;21367;51.930;8.112;2022-10-23T05:22:06;19.67;;;6.78;;
35223;SDS011;21367;51.930;8.112;2022-10-23T05:27:23;35.47;;;6.82;;
35223;SDS011;21367;51.930;8.112;2022-10-23T05:32:29;16.95;;;6.68;;
35223;SDS011;21367;51.930;8.112;2022-10-23T05:37:39;20.27;;;5.80;;
35223;SDS011;21367;51.930;8.112;2022-10-23T05:42:51;10.45;;;5.45;;
35223;SDS011;21367;51.930;8.112;2022-10-23T05:48:07;17.30;;;5.95;;
35223;SDS011;21367;51.930;8.112;2022-10-23T05:53:32;15.30;;;5.50;;
35223;SDS011;21367;51.930;8.112;2022-10-23T05:58:48;13.68;;;5.32;;
35223;SDS011;21367;51.930;8.112;2022-10-23T06:04:02;17.65;;;6.13;;
35223;SDS011;21367;51.930;8.112;2022-10-23T06:09:30;17.73;;;5.93;;
35223;SDS011;21367;51.930;8.112;2022-10-23T06:14:34;13.60;;;5.57;;
35223;SDS011;21367;51.930;8.112;2022-10-23T06:19:38;12.20;;;4.93;;
35223;SDS011;21367;51.930;8.112;2022-10-23T06:24:45;17.42;;;6.10;;
35223;SDS011;21367;51.930;8.112;2022-10-23T06:29:55;15.93;;;6.35;;
35223;SDS011;21367;51.930;8.112;2022-10-23T06:34:58;15.95;;;8.23;;
35223;SDS011;21367;51.930;8.112;2022-10-23T06:40:07;14.88;;;7.65;;
35223;SDS011;21367;51.930;8.112;2022-10-23T06:45:47;28.92;;;14.38;;
35223;SDS011;21367;51.930;8.112;2022-10-23T06:50:51;29.52;;;13.50;;
35223;SDS011;21367;51.930;8.112;2022-10-23T06:56:06;30.08;;;12.10;;
35223;SDS011;21367;51.930;8.112;2022-10-23T07:01:12;14.02;;;6.13;;
35223;SDS011;21367;51.930;8.112;2022-10-23T07:06:17;15.70;;;5.65;;
35223;SDS011;21367;51.930;8.112;2022-10-23T07:11:24;15.20;;;4.97;;
35223;SDS011;21367;51.930;8.112;2022-10-23T07:16:30;15.82;;;3.92;;
35223;SDS011;21367;51.930;8.112;2022-10-23T07:21:34;16.52;;;4.38;;
35223;SDS011;21367;51.930;8.112;2022-10-23T07:27:04;16.42;;;4.72;;
35223;SDS011;21367;51.930;8.112;2022-10-23T07:32:08;11.88;;;5.40;;
35223;SDS011;21367;51.930;8.112;2022-10-23T07:37:15;22.27;;;5.20;;
35223;SDS011;21367;51.930;8.112;2022-10-23T07:42:22;14.88;;;4.82;;
35223;SDS011;21367;51.930;8.112;2022-10-23T07:47:26;14.68;;;5.28;;
35223;SDS011;21367;51.930;8.112;2022-10-23T07:52:33;16.00;;;5.22;;
35223;SDS011;21367;51.930;8.112;2022-10-23T07:57:48;19.48;;;5.53;;
35223;SDS011;21367;51.930;8.112;2022-10-23T08:03:08;13.15;;;5.78;;
35223;SDS011;21367;51.930;8.112;2022-10-23T08:08:12;15.18;;;6.10;;
35223;SDS011;21367;51.930;8.112;2022-10-23T08:13:23;20.20;;;6.60;;
35223;SDS011;21367;51.930;8.112;2022-10-23T08:18:34;28.27;;;6.53;;
35223;SDS011;21367;51.930;8.112;2022-10-23T08:28:46;21.10;;;5.05;;
35223;SDS011;21367;51.930;8.112;2022-10-23T08:33:50;17.17;;;5.80;;
35223;SDS011;21367;51.930;8.112;2022-10-23T08:38:55;14.25;;;5.72;;
35223;SDS011;21367;51.930;8.112;2022-10-23T08:49:28;34.55;;;22.88;;
35223;SDS011;21367;51.930;8.112;2022-10-23T08:54:42;39.08;;;15.77;;
35223;SDS011;21367;51.930;8.112;2022-10-23T08:59:56;32.33;;;21.17;;
35223;SDS011;21367;51.930;8.112;2022-10-23T09:05:02;33.47;;;15.40;;
35223;SDS011;21367;51.930;8.112;2022-10-23T09:10:11;21.08;;;9.75;;
35223;SDS011;21367;51.930;8.112;2022-10-23T09:15:38;22.10;;;7.40;;
35223;SDS011;21367;51.930;8.112;2022-10-23T09:20:45;17.20;;;5.88;;
35223;SDS011;21367;51.930;8.112;2022-10-23T09:25:52;36.00;;;12.45;;
35223;SDS011;21367;51.930;8.112;2022-10-23T09:31:07;22.07;;;8.27;;
35223;SDS011;21367;51.930;8.112;2022-10-23T09:36:17;13.50;;;4.97;;
35223;SDS011;21367;51.930;8.112;2022-10-23T09:41:25;13.30;;;4.25;;
35223;SDS011;21367;51.930;8.112;2022-10-23T09:46:38;16.13;;;4.57;;
35223;SDS011;21367;51.930;8.112;2022-10-23T09:51:51;12.63;;;4.70;;
35223;SDS011;21367;51.930;8.112;2022-10-23T09:57:02;18.52;;;4.68;;
35223;SDS011;21367;51.930;8.112;2022-10-23T10:02:23;11.10;;;4.22;;
35223;SDS011;21367;51.930;8.112;2022-10-23T10:07:52;12.63;;;3.40;;
35223;SDS011;21367;51.930;8.112;2022-10-23T10:13:00;11.65;;;3.63;;
35223;SDS011;21367;51.930;8.112;2022-10-23T10:18:16;15.40;;;4.03;;
35223;SDS011;21367;51.930;8.112;2022-10-23T10:23:31;12.77;;;3.30;;
35223;SDS011;21367;51.930;8.112;2022-10-23T10:28:49;9.40;;;3.47;;
35223;SDS011;21367;51.930;8.112;2022-10-23T10:34:09;14.25;;;3.50;;
35223;SDS011;21367;51.930;8.112;2022-10-23T10:39:19;14.13;;;4.22;;
35223;SDS011;21367;51.930;8.112;2022-10-23T10:44:41;10.25;;;3.25;;
35223;SDS011;21367;51.930;8.112;2022-10-23T10:49:59;11.35;;;2.80;;
35223;SDS011;21367;51.930;8.112;2022-10-23T10:55:23;13.25;;;2.85;;
35223;SDS011;21367;51.930;8.112;2022-10-23T11:00:32;19.77;;;3.45;;
35223;SDS011;21367;51.930;8.112;2022-10-23T11:05:40;13.00;;;3.65;;
35223;SDS011;21367;51.930;8.112;2022-10-23T11:10:47;37.15;;;11.45;;
35223;SDS011;21367;51.930;8.112;2022-10-23T11:15:56;15.90;;;4.10;;
35223;SDS011;21367;51.930;8.112;2022-10-23T11:21:09;14.07;;;2.97;;
35223;SDS011;21367;51.930;8.112;2022-10-23T11:26:31;9.07;;;3.17;;
35223;SDS011;21367;51.930;8.112;2022-10-23T11:31:49;11.63;;;2.88;;
35223;SDS011;21367;51.930;8.112;2022-10-23T11:37:07;19.25;;;4.90;;
35223;SDS011;21367;51.930;8.112;2022-10-23T11:42:12;14.32;;;4.03;;
35223;SDS011;21367;51.930;8.112;2022-10-23T11:47:28;11.32;;;3.55;;
35223;SDS011;21367;51.930;8.112;2022-10-23T11:52:37;16.15;;;3.20;;
35223;SDS011;21367;51.930;8.112;2022-10-23T11:57:43;11.30;;;3.20;;
35223;SDS011;21367;51.930;8.112;2022-10-23T12:02:49;17.40;;;3.67;;
35223;SDS011;21367;51.930;8.112;2022-10-23T12:08:00;21.42;;;4.03;;
35223;SDS011;21367;51.930;8.112;2022-10-23T12:18:33;11.85;;;3.55;;
35223;SDS011;21367;51.930;8.112;2022-10-23T12:24:02;14.63;;;2.92;;
35223;SDS011;21367;51.930;8.112;2022-10-23T12:29:17;15.33;;;2.90;;
35223;SDS011;21367;51.930;8.112;2022-10-23T12:34:45;7.78;;;2.60;;
35223;SDS011;21367;51.930;8.112;2022-10-23T12:40:04;9.18;;;2.97;;
35223;SDS011;21367;51.930;8.112;2022-10-23T12:45:14;7.35;;;2.03;;
35223;SDS011;21367;51.930;8.112;2022-10-23T12:50:22;20.88;;;2.30;;
35223;SDS011;21367;51.930;8.112;2022-10-23T12:55:31;10.07;;;3.28;;
35223;SDS011;21367;51.930;8.112;2022-10-23T13:00:50;10.98;;;2.47;;
35223;SDS011;21367;51.930;8.112;2022-10-23T13:05:56;8.43;;;2.80;;
35223;SDS011;21367;51.930;8.112;2022-10-23T13:11:05;11.20;;;2.45;;
35223;SDS011;21367;51.930;8.112;2022-10-23T13:16:13;7.30;;;2.15;;
35223;SDS011;21367;51.930;8.112;2022-10-23T13:21:19;10.82;;;2.22;;
35223;SDS011;21367;51.930;8.112;2022-10-23T13:26:32;7.72;;;2.40;;
35223;SDS011;21367;51.930;8.112;2022-10-23T13:31:36;9.27;;;2.15;;
35223;SDS011;21367;51.930;8.112;2022-10-23T13:36:48;7.28;;;2.08;;
35223;SDS011;21367;51.930;8.112;2022-10-23T13:41:57;14.98;;;1.90;;
35223;SDS011;21367;51.930;8.112;2022-10-23T13:47:10;10.65;;;2.45;;
35223;SDS011;21367;51.930;8.112;2022-10-23T13:52:18;12.57;;;3.40;;
35223;SDS011;21367;51.930;8.112;2022-10-23T13:57:27;10.75;;;3.30;;
35223;SDS011;21367;51.930;8.112;2022-10-23T14:02:31;8.07;;;3.08;;
35223;SDS011;21367;51.930;8.112;2022-10-23T14:07:35;10.80;;;2.90;;
35223;SDS011;21367;51.930;8.112;2022-10-23T14:12:42;10.52;;;2.60;;
35223;SDS011;21367;51.930;8.112;2022-10-23T14:17:47;8.40;;;2.20;;
35223;SDS011;21367;51.930;8.112;2022-10-23T14:22:57;10.43;;;1.83;;
35223;SDS011;21367;51.930;8.112;2022-10-23T14:28:04;12.48;;;2.35;;
35223;SDS011;21367;51.930;8.112;2022-10-23T14:33:08;5.13;;;2.38;;
35223;SDS011;21367;51.930;8.112;2022-10-23T14:38:12;10.80;;;2.05;;
35223;SDS011;21367;51.930;8.112;2022-10-23T14:43:18;9.65;;;2.00;;
35223;SDS011;21367;51.930;8.112;2022-10-23T14:48:23;19.65;;;2.45;;
35223;SDS011;21367;51.930;8.112;2022-10-23T14:53:27;7.22;;;2.28;;
35223;SDS011;21367;51.930;8.112;2022-10-23T14:58:34;11.27;;;3.55;;
35223;SDS011;21367;51.930;8.112;2022-10-23T15:03:37;24.88;;;7.90;;
35223;SDS011;21367;51.930;8.112;2022-10-23T15:08:42;24.42;;;7.43;;
35223;SDS011;21367;51.930;8.112;2022-10-23T15:13:48;20.38;;;9.00;;
35223;SDS011;21367;51.930;8.112;2022-10-23T15:18:54;11.13;;;3.17;;
35223;SDS011;21367;51.930;8.112;2022-10-23T15:23:58;10.63;;;3.55;;
35223;SDS011;21367;51.930;8.112;2022-10-23T15:29:06;41.03;;;15.80;;
35223;SDS011;21367;51.930;8.112;2022-10-23T15:34:11;22.50;;;10.88;;
35223;SDS011;21367;51.930;8.112;2022-10-23T15:39:17;21.50;;;9.23;;
35223;SDS011;21367;51.930;8.112;2022-10-23T15:44:26;16.98;;;5.25;;
35223;SDS011;21367;51.930;8.112;2022-10-23T15:49:32;8.13;;;3.25;;
35223;SDS011;21367;51.930;8.112;2022-10-23T15:54:36;7.97;;;2.60;;
35223;SDS011;21367;51.930;8.112;2022-10-23T15:59:42;56.20;;;27.25;;
35223;SDS011;21367;51.930;8.112;2022-10-23T16:04:47;16.00;;;6.55;;
35223;SDS011;21367;51.930;8.112;2022-10-23T16:09:51;16.55;;;3.58;;
35223;SDS011;21367;51.930;8.112;2022-10-23T16:14:57;15.82;;;3.35;;
35223;SDS011;21367;51.930;8.112;2022-10-23T16:20:01;29.63;;;12.65;;
35223;SDS011;21367;51.930;8.112;2022-10-23T16:25:05;12.32;;;4.88;;
35223;SDS011;21367;51.930;8.112;2022-10-23T16:30:13;18.10;;;4.80;;
35223;SDS011;21367;51.930;8.112;2022-10-23T16:35:17;19.23;;;5.03;;
35223;SDS011;21367;51.930;8.112;2022-10-23T16:40:35;18.15;;;6.93;;
35223;SDS011;21367;51.930;8.112;2022-10-23T16:46:05;15.02;;;5.45;;
35223;SDS011;21367;51.930;8.112;2022-10-23T16:51:13;15.32;;;7.13;;
35223;SDS011;21367;51.930;8.112;2022-10-23T16:56:19;22.77;;;9.27;;
35223;SDS011;21367;51.930;8.112;2022-10-23T17:01:30;19.35;;;8.73;;
35223;SDS011;21367;51.930;8.112;2022-10-23T17:06:35;25.88;;;10.40;;
35223;SDS011;21367;51.930;8.112;2022-10-23T17:11:39;20.77;;;7.82;;
35223;SDS011;21367;51.930;8.112;2022-10-23T17:16:50;31.55;;;14.38;;
35223;SDS011;21367;51.930;8.112;2022-10-23T17:21:55;103.88;;;46.08;;
35223;SDS011;21367;51.930;8.112;2022-10-23T17:26:59;55.78;;;22.25;;
35223;SDS011;21367;51.930;8.112;2022-10-23T17:32:06;53.72;;;23.75;;
35223;SDS011;21367;51.930;8.112;2022-10-23T17:37:10;42.53;;;21.27;;
35223;SDS011;21367;51.930;8.112;2022-10-23T17:42:14;21.98;;;10.80;;
35223;SDS011;21367;51.930;8.112;2022-10-23T17:47:21;30.17;;;10.43;;
35223;SDS011;21367;51.930;8.112;2022-10-23T17:52:25;14.30;;;7.65;;
35223;SDS011;21367;51.930;8.112;2022-10-23T17:57:29;13.38;;;6.25;;
35223;SDS011;21367;51.930;8.112;2022-10-23T18:02:36;15.80;;;5.72;;
35223;SDS011;21367;51.930;8.112;2022-10-23T18:07:40;13.15;;;5.97;;
35223;SDS011;21367;51.930;8.112;2022-10-23T18:12:44;16.10;;;6.75;;
35223;SDS011;21367;51.930;8.112;2022-10-23T18:17:50;11.93;;;3.20;;
35223;SDS011;21367;51.930;8.112;2022-10-23T18:22:54;15.32;;;4.65;;
35223;SDS011;21367;51.930;8.112;2022-10-23T18:27:58;21.55;;;4.65;;
35223;SDS011;21367;51.930;8.112;2022-10-23T18:33:04;21.30;;;5.10;;
35223;SDS011;21367;51.930;8.112;2022-10-23T18:38:09;31.75;;;6.90;;
35223;SDS011;21367;51.930;8.112;2022-10-23T18:43:13;19.02;;;5.70;;
35223;SDS011;21367;51.930;8.112;2022-10-23T18:48:20;15.70;;;5.50;;
35223;SDS011;21367;51.930;8.112;2022-10-23T18:53:24;37.58;;;7.35;;
35223;SDS011;21367;51.930;8.112;2022-10-23T18:58:28;19.83;;;5.55;;
35223;SDS011;21367;51.930;8.112;2022-10-23T19:03:35;14.07;;;5.70;;
35223;SDS011;21367;51.930;8.112;2022-10-23T19:08:40;18.15;;;6.10;;
35223;SDS011;21367;51.930;8.112;2022-10-23T19:13:45;19.60;;;5.05;;
35223;SDS011;21367;51.930;8.112;2022-10-23T19:18:52;23.27;;;6.07;;
35223;SDS011;21367;51.930;8.112;2022-10-23T19:24:01;23.17;;;6.80;;
35223;SDS011;21367;51.930;8.112;2022-10-23T19:29:09;20.67;;;5.97;;
35223;SDS011;21367;51.930;8.112;2022-10-23T19:34:18;23.58;;;5.45;;
35223;SDS011;21367;51.930;8.112;2022-10-23T19:39:24;20.13;;;4.43;;
35223;SDS011;21367;51.930;8.112;2022-10-23T19:44:28;21.60;;;5.63;;
35223;SDS011;21367;51.930;8.112;2022-10-23T19:49:35;18.33;;;4.80;;
35223;SDS011;21367;51.930;8.112;2022-10-23T19:54:39;13.48;;;5.45;;
35223;SDS011;21367;51.930;8.112;2022-10-23T19:59:46;17.92;;;5.35;;
35223;SDS011;21367;51.930;8.112;2022-10-23T20:04:54;19.95;;;4.68;;
35223;SDS011;21367;51.930;8.112;2022-10-23T20:09:57;19.40;;;5.45;;
35223;SDS011;21367;51.930;8.112;2022-10-23T20:15:02;15.32;;;5.65;;
35223;SDS011;21367;51.930;8.112;2022-10-23T20:20:09;19.27;;;5.95;;
35223;SDS011;21367;51.930;8.112;2022-10-23T20:25:13;15.93;;;5.57;;
35223;SDS011;21367;51.930;8.112;2022-10-23T20:30:17;13.90;;;5.70;;
35223;SDS011;21367;51.930;8.112;2022-10-23T20:35:24;13.77;;;4.80;;
35223;SDS011;21367;51.930;8.112;2022-10-23T20:40:28;20.20;;;5.10;;
35223;SDS011;21367;51.930;8.112;2022-10-23T20:45:32;15.27;;;5.63;;
35223;SDS011;21367;51.930;8.112;2022-10-23T20:50:39;15.82;;;4.43;;
35223;SDS011;21367;51.930;8.112;2022-10-23T20:55:43;16.50;;;5.20;;
35223;SDS011;21367;51.930;8.112;2022-10-23T21:00:47;14.05;;;4.50;;
35223;SDS011;21367;51.930;8.112;2022-10-23T21:05:53;12.55;;;3.80;;
35223;SDS011;21367;51.930;8.112;2022-10-23T21:10:57;10.20;;;3.95;;
35223;SDS011;21367;51.930;8.112;2022-10-23T21:16:09;14.50;;;3.83;;
35223;SDS011;21367;51.930;8.112;2022-10-23T21:21:18;10.00;;;3.70;;
35223;SDS011;21367;51.930;8.112;2022-10-23T21:26:23;10.38;;;4.07;;
35223;SDS011;21367;51.930;8.112;2022-10-23T21:31:28;9.07;;;3.43;;
35223;SDS011;21367;51.930;8.112;2022-10-23T21:36:35;10.35;;;3.30;;
35223;SDS011;21367;51.930;8.112;2022-10-23T21:41:38;17.90;;;2.67;;
35223;SDS011;21367;51.930;8.112;2022-10-23T21:46:42;7.38;;;3.53;;
35223;SDS011;21367;51.930;8.112;2022-10-23T21:51:49;8.85;;;1.48;;
35223;SDS011;21367;51.930;8.112;2022-10-23T21:56:54;5.97;;;1.60;;
35223;SDS011;21367;51.930;8.112;2022-10-23T22:01:58;8.40;;;1.48;;
35223;SDS011;21367;51.930;8.112;2022-10-23T22:07:05;6.72;;;1.98;;
35223;SDS011;21367;51.930;8.112;2022-10-23T22:12:14;13.25;;;1.80;;
35223;SDS011;21367;51.930;8.112;2022-10-23T22:17:17;11.20;;;1.80;;
35223;SDS011;21367;51.930;8.112;2022-10-23T22:22:24;7.22;;;2.00;;
35223;SDS011;21367;51.930;8.112;2022-10-23T22:27:28;10.10;;;2.10;;
35223;SDS011;21367;51.930;8.112;2022-10-23T22:32:33;12.98;;;2.15;;
35223;SDS011;21367;51.930;8.112;2022-10-23T22:37:40;20.17;;;1.97;;
35223;SDS011;21367;51.930;8.112;2022-10-23T22:42:44;14.75;;;2.20;;
35223;SDS011;21367;51.930;8.112;2022-10-23T22:47:48;9.98;;;2.08;;
35223;SDS011;21367;51.930;8.112;2022-10-23T22:52:54;14.82;;;2.85;;
35223;SDS011;21367;51.930;8.112;2022-10-23T22:57:58;6.22;;;2.45;;
35223;SDS011;21367;51.930;8.112;2022-10-23T23:03:02;11.27;;;3.08;;
35223;SDS011;21367;51.930;8.112;2022-10-23T23:08:09;16.83;;;2.42;;
35223;SDS011;21367;51.930;8.112;2022-10-23T23:13:13;5.63;;;2.33;;
35223;SDS011;21367;51.930;8.112;2022-10-23T23:18:17;14.75;;;3.17;;
35223;SDS011;21367;51.930;8.112;2022-10-23T23:23:24;7.35;;;2.97;;
35223;SDS011;21367;51.930;8.112;2022-10-23T23:28:28;8.63;;;2.10;;
35223;SDS011;21367;51.930;8.112;2022-10-23T23:33:32;10.43;;;2.60;;
35223;SDS011;21367;51.930;8.112;2022-10-23T23:38:38;18.10;;;4.50;;
35223;SDS011;21367;51.930;8.112;2022-10-23T23:43:43;16.60;;;4.15;;
35223;SDS011;21367;51.930;8.112;2022-10-23T23:48:47;8.52;;;3.80;;
35223;SDS011;21367;51.930;8.112;2022-10-23T23:53:54;16.17;;;4.32;;
35223;SDS011;21367;51.930;8.112;2022-10-23T23:58:58;14.65;;;3.53;;
